πŸ“Š DonnΓ©es MΓ©tΓ©o - Bordeaux

Total mesures

14,511

TempΓ©rature moyenne

18.9Β°C

Temp. Min/Max

2.9Β° / 42.4Β°

HumiditΓ© moyenne

64.8%

Pression moyenne

1014.8 hPa
enregistrements
ID Date/Heure Temp (Β°C) HumiditΓ© (%) Pression (hPa) Tendance LuminositΓ© (lux) Situation
6711 26/04/2026 20:45 16.4 78.0 1,017.6 β†’ Stable 0 pluvieux-gris (approx.)
6710 26/04/2026 20:15 17.4 74.0 1,017.6 β†’ Stable 0 pluvieux-gris (approx.)
6709 26/04/2026 19:45 18.2 72.0 1,017.0 β†’ Stable 0 pluvieux-gris (approx.)
6708 26/04/2026 19:30 19.6 66.0 1,017.0 β†’ Stable 0 frais-stable
6707 26/04/2026 19:15 20.2 64.0 1,017.0 β†’ Stable 0 frais-stable
6706 26/04/2026 18:45 21.7 59.0 1,016.3 β†’ Stable 1,848 frais-stable
6705 26/04/2026 18:30 21.5 60.0 1,016.3 β†’ Stable 7,224 frais-stable
6704 26/04/2026 18:15 22.9 54.0 1,016.3 β†’ Stable 12,132 frais-stable
6703 26/04/2026 17:45 23.6 51.0 1,016.4 β†’ Stable 21,480 conditions-neutrales-ou-non-definies
6702 26/04/2026 17:15 23.8 49.0 1,016.4 β†’ Stable 29,076 conditions-neutrales-ou-non-definies
6701 26/04/2026 16:45 23.9 49.0 1,016.5 β†’ Stable 36,948 conditions-neutrales-ou-non-definies
6700 26/04/2026 16:15 23.8 49.0 1,016.5 β†’ Stable 45,744 conditions-neutrales-ou-non-definies
6699 26/04/2026 15:45 23.9 49.0 1,016.6 β†’ Stable 52,872 conditions-neutrales-ou-non-definies
6698 26/04/2026 15:15 23.7 50.0 1,016.6 β†’ Stable 62,040 conditions-neutrales-ou-non-definies
6697 26/04/2026 14:45 23.6 50.0 1,017.2 β†’ Stable 71,292 confortablement-chaud (approx.)
6696 26/04/2026 14:15 23.4 51.0 1,017.2 β†’ Stable 78,612 confortablement-chaud (approx.)
6695 26/04/2026 13:45 23.2 51.0 1,017.5 β†’ Stable 84,816 confortablement-chaud (approx.)
6694 26/04/2026 13:15 22.1 55.0 1,017.8 β†’ Stable 77,496 frais-stable
6693 26/04/2026 12:45 21.6 56.0 1,018.3 β†’ Stable 77,124 frais-stable
6692 26/04/2026 12:15 21.2 58.0 1,018.3 β†’ Stable 71,580 frais-stable
6691 26/04/2026 11:45 20.7 59.0 1,018.8 β†’ Stable 72,408 frais-stable
6690 26/04/2026 11:15 20.5 59.0 1,018.8 β†’ Stable 77,316 frais-stable
6689 26/04/2026 10:45 19.7 62.0 1,019.2 β†’ Stable 71,940 frais-stable
6688 26/04/2026 10:15 19.3 62.0 1,019.2 β†’ Stable 76,392 frais-stable
6687 26/04/2026 09:45 18.5 64.0 1,019.2 β†’ Stable 70,188 frais-stable
6686 26/04/2026 09:15 18.0 66.0 1,019.2 β†’ Stable 67,032 frais-stable
6685 26/04/2026 08:45 17.4 68.0 1,019.2 β†’ Stable 59,448 frais-stable
6684 26/04/2026 08:15 17.0 69.0 1,019.2 β†’ Stable 49,812 frais-stable
6683 26/04/2026 07:45 16.3 72.0 1,019.2 β†’ Stable 41,388 pluvieux-gris (approx.)
6682 26/04/2026 07:15 15.8 74.0 1,019.2 β†’ Stable 28,800 pluvieux-gris
6681 26/04/2026 06:45 15.4 76.0 1,018.9 β†’ Stable 21,576 pluvieux-gris
6680 26/04/2026 06:15 14.7 80.0 1,018.9 β†’ Stable 10,920 pluvieux-gris
6679 26/04/2026 05:45 14.5 82.0 1,018.6 β†’ Stable 5,376 pluvieux-gris
6678 26/04/2026 05:15 14.4 85.0 1,018.6 β†’ Stable 180 pluvieux-gris
6677 26/04/2026 04:45 14.4 85.0 1,018.6 β†’ Stable 0 pluvieux-gris
6676 26/04/2026 04:15 14.6 81.0 1,018.6 β†’ Stable 0 pluvieux-gris
6675 26/04/2026 03:45 14.6 81.0 1,018.7 β†’ Stable 0 pluvieux-gris
6674 26/04/2026 03:15 14.7 78.0 1,018.7 β†’ Stable 0 pluvieux-gris
6673 26/04/2026 02:45 14.7 80.0 1,018.5 β†’ Stable 0 pluvieux-gris
6672 26/04/2026 02:15 14.8 81.0 1,018.5 β†’ Stable 0 pluvieux-gris
6671 26/04/2026 01:45 15.0 79.0 1,018.4 β†’ Stable 0 pluvieux-gris
6670 26/04/2026 01:30 15.0 76.0 1,018.4 β†’ Stable 0 pluvieux-gris
6669 26/04/2026 01:15 15.0 77.0 1,018.4 β†’ Stable 0 pluvieux-gris
6668 26/04/2026 00:45 15.1 81.0 1,018.2 β†’ Stable 0 pluvieux-gris
6667 26/04/2026 00:15 15.1 81.0 1,018.2 β†’ Stable 0 pluvieux-gris
6666 25/04/2026 23:45 15.2 80.0 1,018.2 β†’ Stable 0 pluvieux-gris
6665 25/04/2026 23:15 15.3 81.0 1,018.2 β†’ Stable 0 pluvieux-gris
6664 25/04/2026 22:45 15.3 81.0 1,018.3 β†’ Stable 0 pluvieux-gris
6663 25/04/2026 22:15 15.6 82.0 1,018.3 β†’ Stable 0 pluvieux-gris
6662 25/04/2026 21:45 15.6 81.0 1,018.2 β†’ Stable 0 pluvieux-gris
6661 25/04/2026 21:30 15.8 81.0 1,018.2 β†’ Stable 0 pluvieux-gris
6660 25/04/2026 21:15 15.9 81.0 1,018.2 β†’ Stable 0 pluvieux-gris
6659 25/04/2026 20:45 16.1 80.0 1,018.0 β†’ Stable 0 pluvieux-gris (approx.)
6658 25/04/2026 20:30 16.0 79.0 1,018.0 β†’ Stable 0 pluvieux-gris
6657 25/04/2026 20:15 16.2 78.0 1,018.0 β†’ Stable 0 pluvieux-gris (approx.)
6656 25/04/2026 19:45 16.4 77.0 1,017.3 β†’ Stable 0 pluvieux-gris (approx.)
6655 25/04/2026 19:30 16.5 75.0 1,017.3 β†’ Stable 0 pluvieux-gris (approx.)
6654 25/04/2026 19:15 16.6 75.0 1,017.3 β†’ Stable 0 pluvieux-gris (approx.)
6653 25/04/2026 18:45 16.9 75.0 1,016.9 β†’ Stable 2,040 pluvieux-gris (approx.)
6652 25/04/2026 18:30 16.9 71.0 1,016.9 β†’ Stable 6,756 pluvieux-gris (approx.)
6651 25/04/2026 18:15 17.0 72.0 1,016.9 β†’ Stable 10,368 pluvieux-gris (approx.)
6650 25/04/2026 17:45 17.1 74.0 1,016.7 β†’ Stable 17,496 pluvieux-gris (approx.)
6649 25/04/2026 17:30 17.4 74.0 1,016.7 β†’ Stable 21,576 pluvieux-gris (approx.)
6648 25/04/2026 17:15 17.5 74.0 1,016.7 β†’ Stable 25,188 pluvieux-gris (approx.)
6647 25/04/2026 16:45 17.7 75.0 1,016.3 β†’ Stable 32,124 pluvieux-gris (approx.)
6646 25/04/2026 16:15 19.1 63.0 1,016.3 β†’ Stable 45,648 frais-stable
6645 25/04/2026 15:45 18.9 65.0 1,016.0 β†’ Stable 55,188 frais-stable
6644 25/04/2026 15:15 19.7 60.0 1,016.0 β†’ Stable 68,892 frais-stable
6643 25/04/2026 14:45 19.5 62.0 1,016.3 β†’ Stable 78,240 frais-stable
6642 25/04/2026 14:15 20.5 56.0 1,016.3 β†’ Stable 80,376 frais-stable
6641 25/04/2026 13:45 19.9 59.0 1,016.9 β†’ Stable 84,912 frais-stable
6640 25/04/2026 13:15 18.8 69.0 1,016.9 β†’ Stable 42,504 frais-stable
6639 25/04/2026 12:45 17.5 75.0 1,017.0 β†’ Stable 38,796 pluvieux-gris (approx.)
6638 25/04/2026 12:15 18.0 71.0 1,017.0 β†’ Stable 38,244 pluvieux-gris (approx.)
6637 25/04/2026 11:45 17.9 73.0 1,017.1 β†’ Stable 34,080 pluvieux-gris (approx.)
6636 25/04/2026 11:15 17.9 72.0 1,017.1 β†’ Stable 30,744 pluvieux-gris (approx.)
6635 25/04/2026 10:45 17.5 77.0 1,017.5 β†’ Stable 29,904 pluvieux-gris (approx.)
6634 25/04/2026 10:15 17.9 74.0 1,017.5 β†’ Stable 43,800 pluvieux-gris (approx.)
6633 25/04/2026 09:45 18.1 70.0 1,017.5 β†’ Stable 31,200 pluvieux-gris (approx.)
6632 25/04/2026 09:15 17.6 72.0 1,017.5 β†’ Stable 22,968 pluvieux-gris (approx.)
6631 25/04/2026 08:45 16.8 76.0 1,017.5 β†’ Stable 18,888 pluvieux-gris (approx.)
6630 25/04/2026 08:15 16.6 79.0 1,017.5 β†’ Stable 22,404 pluvieux-gris (approx.)
6629 25/04/2026 07:45 16.6 78.0 1,017.5 β†’ Stable 19,536 pluvieux-gris (approx.)
6628 25/04/2026 07:15 16.2 77.0 1,017.5 β†’ Stable 11,856 pluvieux-gris (approx.)
6627 25/04/2026 06:45 16.0 81.0 1,017.0 β†’ Stable 7,320 pluvieux-gris
6626 25/04/2026 06:15 15.9 82.0 1,017.0 β†’ Stable 4,440 pluvieux-gris
6625 25/04/2026 05:45 15.7 84.0 1,016.6 β†’ Stable 2,124 pluvieux-gris
6624 25/04/2026 05:15 15.6 82.0 1,016.6 β†’ Stable 180 pluvieux-gris
6623 25/04/2026 04:45 15.5 87.0 1,016.4 β†’ Stable 0 pluvieux-gris
6622 25/04/2026 04:15 15.5 87.0 1,016.4 β†’ Stable 0 pluvieux-gris
6621 25/04/2026 03:45 15.5 86.0 1,016.3 β†’ Stable 0 pluvieux-gris
6620 25/04/2026 03:15 15.3 92.0 1,016.3 β†’ Stable 0 pluvieux-gris
6619 25/04/2026 02:45 15.3 91.0 1,016.3 β†’ Stable 0 pluvieux-gris
6618 25/04/2026 02:15 15.5 86.0 1,016.3 β†’ Stable 0 pluvieux-gris
6617 25/04/2026 01:45 15.6 85.0 1,016.2 β†’ Stable 0 pluvieux-gris
6616 25/04/2026 01:15 15.4 90.0 1,016.2 β†’ Stable 0 pluvieux-gris
6615 25/04/2026 00:45 15.4 92.0 1,016.2 β†’ Stable 0 pluvieux-gris
6614 25/04/2026 00:15 15.5 88.0 1,016.2 β†’ Stable 0 pluvieux-gris
6613 24/04/2026 23:45 15.4 88.0 1,016.5 β†’ Stable 0 pluvieux-gris
6612 24/04/2026 23:30 15.1 87.0 1,016.5 β†’ Stable 0 pluvieux-gris